Mustafa Dayi — TCZF2 — position and weather

sailwx.info

Track history (hours):
 
Tides and Currents Weather Stations Pressure Air Temp Water Temp Dewpoint Dewpoint Depression Visibility Wind Speed Wind Dir Waves Ship Positions

Mustafa Dayi

Last reported at 2014-Nov-22 21:07 UTC. Time now 2014-Nov-23 11:01 UTC.
Position N 35°31' E 032°54'.

Length 183 m; draft 9.5 m.

Type: Ship. MMSI: 271042433.

Date/timePositionNaut miles runAvg speedWind from/ knotsBaromVisibWave heightAir tempDewpointWater temp
2014-Nov-22 21:07N 35°31' E 032°54'1013.2
2014-Nov-22 20:23N 35°30' E 033°06'  
2014-Nov-20 06:33N 37°14' E 026°55'1414.3
2014-Nov-20 05:34N 37°26' E 026°45'1413.8
2014-Nov-20 04:32N 37°38' E 026°35'1513.6
2014-Nov-20 03:26N 37°49' E 026°22'1213.4
2014-Nov-20 02:32N 37°57' E 026°11'1413.7
2014-Nov-20 01:33N 38°07' E 025°59'  
2014-Nov-12 22:31N 40°56' E 028°40'  
Track history (hours):
 
Tides and Currents Weather Stations Pressure Air Temp Water Temp Dewpoint Dewpoint Depression Visibility Wind Speed Wind Dir Waves Ship Positions

Mustafa Dayi

Last reported at 2014-Nov-22 21:07 UTC. Time now 2014-Nov-23 11:01 UTC.
Position N 35°31' E 032°54'.

Length 183 m; draft 9.5 m.

Type: Ship. MMSI: 271042433.

Date/timePositionNaut miles runAvg speedWind from/ knotsBaromVisibWave heightAir tempDewpointWater temp
2014-Nov-22 21:07N 35°31' E 032°54'1013.2
2014-Nov-22 20:23N 35°30' E 033°06'  
2014-Nov-20 06:33N 37°14' E 026°55'1414.3
2014-Nov-20 05:34N 37°26' E 026°45'1413.8
2014-Nov-20 04:32N 37°38' E 026°35'1513.6
2014-Nov-20 03:26N 37°49' E 026°22'1213.4
2014-Nov-20 02:32N 37°57' E 026°11'1413.7
2014-Nov-20 01:33N 38°07' E 025°59'  
2014-Nov-12 22:31N 40°56' E 028°40'  

Dump ship's entire track history